Time;durP1;ratioP1;P1;durP2;ratioP2;P2;SDS_P1;SDS_P2;PMS_P1;PMS_P2;Temp;Humidity;BMP_temperature;BMP_pressure;BME280_temperature;BME280_humidity;BME280_pressure;Samples;Min_cycle;Max_cycle;Signal;HPM_P1;HPM_P2
2023/01/12 00:00:57;;;;;;;5.18;1.90;;;5.90;99.90;;;;;;5021824;28;20276;-75
2023/01/12 00:03:23;;;;;;;5.88;1.88;;;5.80;99.90;;;;;;5021318;28;20201;-76
2023/01/12 00:05:48;;;;;;;4.35;1.92;;;5.80;99.90;;;;;;5020202;28;20192;-76
2023/01/12 00:08:14;;;;;;;2.97;1.88;;;5.80;99.90;;;;;;5027725;28;20245;-76
2023/01/12 00:10:40;;;;;;;5.72;2.10;;;5.80;99.90;;;;;;5029430;28;20183;-76
2023/01/12 00:13:05;;;;;;;3.75;2.30;;;5.80;99.90;;;;;;5024462;28;20209;-75
2023/01/12 00:18:37;;;;;;;6.78;2.00;;;5.70;99.90;;;;;;5042192;28;20215;-75
2023/01/12 00:21:03;;;;;;;4.20;2.25;;;5.80;99.90;;;;;;5035194;28;20647;-75
2023/01/12 00:23:28;;;;;;;3.45;1.95;;;5.70;99.90;;;;;;5028208;28;20219;-75
2023/01/12 00:25:54;;;;;;;6.60;1.77;;;5.70;99.90;;;;;;5022363;28;20200;-75
2023/01/12 00:28:19;;;;;;;2.83;1.80;;;5.70;99.90;;;;;;5019995;28;20204;-76
2023/01/12 00:30:45;;;;;;;1.80;1.38;;;5.70;99.90;;;;;;5027592;28;20185;-76
2023/01/12 00:33:12;;;;;;;6.30;2.17;;;5.70;99.90;;;;;;5010383;28;20208;-75
2023/01/12 00:35:37;;;;;;;2.47;1.90;;;5.70;99.90;;;;;;5023907;28;20181;-75
2023/01/12 00:38:05;;;;;;;2.33;2.10;;;5.70;99.90;;;;;;5018890;28;20213;-76
2023/01/12 00:40:31;;;;;;;4.55;1.98;;;5.50;99.90;;;;;;5017317;28;20633;-76
2023/01/12 00:45:41;;;;;;;4.30;2.33;;;5.50;99.90;;;;;;5022961;28;20191;-74
2023/01/12 00:48:11;;;;;;;3.97;2.28;;;5.50;99.90;;;;;;5024572;28;20263;-75
2023/01/12 00:50:37;;;;;;;4.60;1.92;;;5.50;99.90;;;;;;5022823;28;20271;-75
2023/01/12 00:53:03;;;;;;;4.05;2.10;;;5.50;99.90;;;;;;5021246;28;20780;-74
2023/01/12 00:55:28;;;;;;;4.50;2.10;;;5.50;99.90;;;;;;5017310;28;20240;-74
2023/01/12 00:57:55;;;;;;;5.43;1.77;;;5.60;99.90;;;;;;5009053;28;20212;-77
2023/01/12 01:00:21;;;;;;;6.45;2.03;;;5.50;99.90;;;;;;5022293;28;20185;-76
2023/01/12 01:02:47;;;;;;;4.15;1.95;;;5.50;99.90;;;;;;5015799;28;20250;-75
2023/01/12 01:05:12;;;;;;;9.65;2.40;;;5.50;99.90;;;;;;5014551;28;20568;-75
2023/01/12 01:07:38;;;;;;;6.28;2.10;;;5.40;99.90;;;;;;5011294;28;20181;-76
2023/01/12 01:10:04;;;;;;;4.28;1.75;;;5.30;99.90;;;;;;5012140;28;20189;-76
2023/01/12 01:12:29;;;;;;;4.18;2.15;;;5.30;99.90;;;;;;5008565;28;20628;-76
2023/01/12 01:14:55;;;;;;;3.85;1.90;;;5.10;99.90;;;;;;5010030;28;20169;-75
2023/01/12 01:17:21;;;;;;;4.15;2.25;;;4.90;99.90;;;;;;5017467;28;20185;-75
2023/01/12 01:19:47;;;;;;;2.40;1.52;;;4.90;99.90;;;;;;5026072;28;20211;-75
2023/01/12 01:22:13;;;;;;;6.80;2.00;;;4.90;99.90;;;;;;5022126;28;20660;-75
2023/01/12 01:24:39;;;;;;;4.80;1.73;;;4.90;99.90;;;;;;5024147;28;20188;-75
2023/01/12 01:27:05;;;;;;;4.13;1.85;;;4.80;99.90;;;;;;5017485;28;20184;-76
2023/01/12 01:29:30;;;;;;;3.50;1.92;;;4.80;99.90;;;;;;5020978;28;20185;-76
2023/01/12 01:31:56;;;;;;;4.88;1.75;;;4.80;99.90;;;;;;5025891;28;20172;-76
2023/01/12 01:34:22;;;;;;;5.53;2.13;;;4.70;99.90;;;;;;5019846;28;20231;-76
2023/01/12 01:36:48;;;;;;;1.85;1.60;;;4.70;99.90;;;;;;5026878;28;20263;-76
2023/01/12 01:39:14;;;;;;;4.57;1.88;;;4.60;99.90;;;;;;5023934;28;20291;-76
2023/01/12 01:41:39;;;;;;;4.95;1.85;;;4.70;99.90;;;;;;5018577;28;20181;-76
2023/01/12 01:44:28;;;;;;;4.57;2.10;;;4.80;99.90;;;;;;5018279;28;20232;-76
2023/01/12 01:46:55;;;;;;;8.07;2.10;;;4.70;99.90;;;;;;5011757;28;20195;-76
2023/01/12 01:49:35;;;;;;;4.80;1.92;;;4.70;99.90;;;;;;5023980;28;20870;-76
2023/01/12 01:52:19;;;;;;;2.00;1.75;;;4.70;99.90;;;;;;5016417;28;20235;-76
2023/01/12 01:55:00;;;;;;;7.30;2.28;;;4.90;99.90;;;;;;5025690;28;20627;-76
2023/01/12 01:57:32;;;;;;;4.63;2.10;;;5.10;99.90;;;;;;5020115;28;20243;-76
2023/01/12 02:00:00;;;;;;;7.65;2.55;;;5.00;99.90;;;;;;5020483;28;20211;-76
2023/01/12 02:02:26;;;;;;;5.07;1.90;;;5.10;99.90;;;;;;5009581;28;20694;-77
2023/01/12 02:04:54;;;;;;;5.50;2.05;;;5.20;99.90;;;;;;5026653;28;20275;-77
2023/01/12 02:07:20;;;;;;;5.10;2.00;;;5.20;99.90;;;;;;5021230;28;20181;-76
2023/01/12 02:09:45;;;;;;;5.65;2.38;;;5.20;99.90;;;;;;5028058;28;20242;-76
2023/01/12 02:17:42;;;;;;;8.75;2.13;;;5.20;99.90;;;;;;5018927;28;20196;-76
2023/01/12 02:20:48;;;;;;;2.60;1.85;;;5.30;99.90;;;;;;5024080;28;20870;-76
2023/01/12 02:23:44;;;;;;;6.88;2.78;;;5.20;99.90;;;;;;5019725;28;20334;-75
2023/01/12 02:26:46;;;;;;;6.63;1.80;;;5.20;99.90;;;;;;5011881;28;20189;-76
2023/01/12 02:29:43;;;;;;;3.38;1.90;;;5.20;99.90;;;;;;5015353;28;20192;-76
2023/01/12 02:32:22;;;;;;;2.40;1.80;;;5.20;99.90;;;;;;5021486;28;20714;-75
2023/01/12 02:35:18;;;;;;;5.07;1.63;;;5.30;99.90;;;;;;5026682;28;20180;-77
2023/01/12 02:38:13;;;;;;;2.95;1.75;;;5.30;99.90;;;;;;5016757;28;20188;-76
2023/01/12 02:40:58;;;;;;;1.77;1.05;;;5.50;99.90;;;;;;5022773;28;20655;-76
2023/01/12 02:43:28;;;;;;;2.80;1.70;;;5.50;99.90;;;;;;5023881;28;20675;-77
2023/01/12 02:46:20;;;;;;;4.45;1.80;;;5.50;99.90;;;;;;5022357;28;20177;-77
2023/01/12 02:48:51;;;;;;;4.68;1.90;;;5.50;99.90;;;;;;5033732;28;20188;-77
2023/01/12 02:51:36;;;;;;;2.30;1.25;;;5.60;99.90;;;;;;5021164;28;20267;-77
2023/01/12 02:54:05;;;;;;;3.08;1.95;;;5.60;99.90;;;;;;5011821;28;20714;-77
2023/01/12 02:56:48;;;;;;;5.13;1.83;;;5.60;99.90;;;;;;5023639;28;20197;-77
2023/01/12 02:59:26;;;;;;;3.15;1.70;;;5.70;99.90;;;;;;5022943;28;20675;-77
2023/01/12 03:01:57;;;;;;;1.80;1.58;;;5.70;99.90;;;;;;5018010;28;20643;-77
2023/01/12 03:04:24;;;;;;;1.73;1.27;;;5.80;99.90;;;;;;5022674;28;20185;-76
2023/01/12 03:06:56;;;;;;;2.45;1.75;;;5.80;99.90;;;;;;5018416;28;20189;-76
2023/01/12 03:09:34;;;;;;;4.70;1.63;;;5.90;99.90;;;;;;5027548;28;20177;-75
2023/01/12 03:12:05;;;;;;;2.20;1.73;;;6.00;99.90;;;;;;5011668;28;20204;-75
2023/01/12 03:14:35;;;;;;;3.20;1.60;;;6.00;99.90;;;;;;5028898;28;20231;-75
2023/01/12 03:17:08;;;;;;;1.10;0.85;;;6.00;99.90;;;;;;5019262;28;20188;-75
2023/01/12 03:19:35;;;;;;;4.00;1.90;;;6.10;99.90;;;;;;5023715;28;20283;-75
2023/01/12 03:22:08;;;;;;;2.38;1.67;;;6.10;99.90;;;;;;5027780;28;20610;-76
2023/01/12 03:24:42;;;;;;;2.08;1.67;;;6.00;99.90;;;;;;5030361;28;20173;-76
2023/01/12 03:27:13;;;;;;;3.30;1.45;;;6.00;99.90;;;;;;5021336;28;20191;-75
2023/01/12 03:29:44;;;;;;;1.88;1.30;;;6.00;99.90;;;;;;5024271;28;20188;-76
2023/01/12 03:32:09;;;;;;;4.88;1.30;;;5.90;99.90;;;;;;5034414;28;20574;-75
2023/01/12 03:34:36;;;;;;;2.00;1.80;;;5.90;99.90;;;;;;5015565;28;20181;-75
2023/01/12 03:37:12;;;;;;;2.53;1.13;;;5.90;99.90;;;;;;5015388;28;20200;-76
2023/01/12 03:40:07;;;;;;;2.17;1.67;;;5.80;99.90;;;;;;5018484;28;20204;-77
2023/01/12 03:42:47;;;;;;;1.63;1.50;;;5.70;99.90;;;;;;5020482;28;20235;-77
2023/01/12 03:45:38;;;;;;;2.55;1.30;;;5.70;99.90;;;;;;5014684;28;20188;-76
2023/01/12 03:48:21;;;;;;;1.90;1.40;;;5.70;99.90;;;;;;5019315;28;20186;-76
2023/01/12 03:51:03;;;;;;;1.83;1.50;;;5.70;99.90;;;;;;5023785;28;20197;-76
2023/01/12 03:53:31;;;;;;;4.57;1.65;;;5.70;99.90;;;;;;5021659;28;20234;-76
2023/01/12 03:56:01;;;;;;;6.38;1.80;;;5.50;99.90;;;;;;5020074;28;20708;-75
2023/01/12 03:58:27;;;;;;;2.25;1.35;;;5.40;99.90;;;;;;5021361;28;20205;-75
2023/01/12 04:00:52;;;;;;;2.78;1.58;;;5.30;99.90;;;;;;5013082;28;20188;-75
2023/01/12 04:03:19;;;;;;;4.90;1.48;;;5.20;99.90;;;;;;5022688;28;20205;-76
2023/01/12 04:05:45;;;;;;;3.08;2.00;;;5.10;99.90;;;;;;5019160;28;20251;-76
2023/01/12 04:08:13;;;;;;;2.15;1.50;;;5.10;99.90;;;;;;5012563;28;20239;-76
2023/01/12 04:10:39;;;;;;;3.88;1.80;;;5.00;99.90;;;;;;5024260;28;20215;-76
2023/01/12 04:13:05;;;;;;;2.20;1.70;;;4.90;99.90;;;;;;5021606;28;20201;-77
2023/01/12 04:15:30;;;;;;;3.63;1.65;;;4.90;99.90;;;;;;5012587;28;20581;-76
2023/01/12 04:17:56;;;;;;;2.47;1.48;;;4.90;99.90;;;;;;5013377;28;20212;-76
2023/01/12 04:20:21;;;;;;;1.83;1.73;;;4.90;99.90;;;;;;5019960;28;20239;-76
2023/01/12 04:22:47;;;;;;;2.20;1.48;;;4.80;99.90;;;;;;5023524;28;20197;-76
2023/01/12 04:25:21;;;;;;;3.40;1.98;;;4.80;99.90;;;;;;5017540;28;20185;-76
2023/01/12 04:27:55;;;;;;;2.15;1.52;;;4.80;99.90;;;;;;5024302;28;20553;-76
2023/01/12 04:30:25;;;;;;;1.70;1.60;;;4.80;99.90;;;;;;5028348;28;20255;-76
2023/01/12 04:32:51;;;;;;;3.00;2.08;;;4.80;99.90;;;;;;5019834;28;20197;-77
2023/01/12 04:35:17;;;;;;;2.20;1.35;;;4.80;99.90;;;;;;5011031;28;20185;-76
2023/01/12 04:37:44;;;;;;;2.20;1.50;;;4.70;99.90;;;;;;5023212;28;20184;-77
2023/01/12 04:40:11;;;;;;;1.55;1.45;;;4.70;99.90;;;;;;5029526;28;20260;-77
2023/01/12 04:43:07;;;;;;;2.40;1.45;;;4.80;99.90;;;;;;5024554;28;20656;-76
2023/01/12 04:45:36;;;;;;;4.05;2.65;;;4.80;99.90;;;;;;5023865;28;20600;-75
2023/01/12 04:48:02;;;;;;;3.10;1.88;;;4.80;99.90;;;;;;5019018;28;20244;-75
2023/01/12 04:50:28;;;;;;;4.32;1.70;;;4.80;99.90;;;;;;5027360;28;20597;-75
2023/01/12 04:52:54;;;;;;;1.83;1.45;;;4.70;99.90;;;;;;5020915;28;20276;-76
2023/01/12 04:55:19;;;;;;;4.35;1.95;;;4.80;99.90;;;;;;5021097;28;20172;-75
2023/01/12 04:57:45;;;;;;;5.28;1.75;;;4.90;99.90;;;;;;5024923;28;20661;-75
2023/01/12 05:00:12;;;;;;;5.05;2.22;;;4.80;99.90;;;;;;5009776;28;20177;-75
2023/01/12 05:02:37;;;;;;;2.22;1.58;;;4.70;99.90;;;;;;5007743;28;20198;-75
2023/01/12 05:05:04;;;;;;;5.32;1.95;;;4.70;99.90;;;;;;5015318;28;20732;-75
2023/01/12 05:07:30;;;;;;;6.05;3.03;;;4.70;99.90;;;;;;5011959;28;20177;-75
2023/01/12 05:12:39;;;;;;;3.95;1.80;;;4.70;99.90;;;;;;5015047;28;20208;-75
2023/01/12 05:15:06;;;;;;;4.32;2.50;;;4.80;99.90;;;;;;5007023;28;20182;-75
2023/01/12 05:17:32;;;;;;;4.15;2.80;;;4.80;99.90;;;;;;5011627;28;20177;-76
2023/01/12 05:19:57;;;;;;;5.47;1.77;;;4.70;99.90;;;;;;5013633;28;20207;-75
2023/01/12 05:22:23;;;;;;;2.42;1.15;;;4.80;99.90;;;;;;5005215;28;20669;-76
2023/01/12 05:24:48;;;;;;;4.90;1.70;;;4.90;99.90;;;;;;5013625;28;20646;-74
2023/01/12 05:27:14;;;;;;;1.63;1.52;;;4.90;99.90;;;;;;5005583;28;20684;-76
2023/01/12 05:29:40;;;;;;;3.78;1.60;;;5.00;99.90;;;;;;5014641;28;20185;-77
2023/01/12 05:32:05;;;;;;;1.88;1.73;;;4.90;99.90;;;;;;5015807;28;20610;-77
2023/01/12 05:34:31;;;;;;;3.45;1.80;;;4.80;99.90;;;;;;5020045;28;20176;-76
2023/01/12 05:36:56;;;;;;;4.38;2.00;;;4.70;99.90;;;;;;5016387;28;20191;-76
2023/01/12 05:39:22;;;;;;;3.00;1.80;;;4.70;99.90;;;;;;5012581;28;20308;-76
2023/01/12 05:44:32;;;;;;;3.08;1.80;;;4.70;99.90;;;;;;5012122;28;20568;-76
2023/01/12 05:46:57;;;;;;;7.80;2.90;;;4.70;99.90;;;;;;5014515;28;20181;-76
2023/01/12 05:49:23;;;;;;;3.60;2.42;;;4.70;99.90;;;;;;5005420;28;20212;-76
2023/01/12 05:51:48;;;;;;;3.40;2.00;;;4.70;99.90;;;;;;5018313;28;20183;-76
2023/01/12 05:54:14;;;;;;;2.63;1.90;;;4.70;99.90;;;;;;5014953;28;20715;-75
2023/01/12 05:56:40;;;;;;;5.93;1.80;;;4.60;99.90;;;;;;5005339;28;20186;-76
2023/01/12 05:59:05;;;;;;;3.85;2.00;;;4.60;99.90;;;;;;5014544;28;20335;-76
2023/01/12 06:01:31;;;;;;;2.35;2.10;;;4.70;99.90;;;;;;5016148;28;20248;-76
2023/01/12 06:03:59;;;;;;;2.95;1.75;;;4.60;99.90;;;;;;5014254;28;20213;-76
2023/01/12 06:06:29;;;;;;;2.40;1.73;;;4.60;99.90;;;;;;5008459;28;20209;-75
2023/01/12 06:08:55;;;;;;;5.07;2.33;;;4.70;99.90;;;;;;5010577;28;20188;-76
2023/01/12 06:14:06;;;;;;;4.70;1.75;;;4.70;99.90;;;;;;5014878;28;20195;-76
2023/01/12 06:16:31;;;;;;;4.35;1.83;;;4.60;99.90;;;;;;5015028;28;20176;-77
2023/01/12 06:18:57;;;;;;;5.18;1.85;;;4.60;99.90;;;;;;5008756;28;20722;-78
2023/01/12 06:21:23;;;;;;;2.38;1.75;;;4.70;99.90;;;;;;5020642;28;20633;-75
2023/01/12 06:23:49;;;;;;;9.60;2.20;;;4.70;99.90;;;;;;5006825;28;20654;-75
2023/01/12 06:26:15;;;;;;;3.25;1.90;;;4.60;99.90;;;;;;5014673;28;20169;-74
2023/01/12 06:28:41;;;;;;;3.97;2.22;;;4.70;99.90;;;;;;5018668;28;20200;-75
2023/01/12 06:31:10;;;;;;;2.00;1.80;;;4.70;99.90;;;;;;5011678;28;20220;-76
2023/01/12 06:33:35;;;;;;;2.38;1.60;;;4.80;99.90;;;;;;5012237;28;20696;-76
2023/01/12 06:36:02;;;;;;;2.50;1.77;;;4.80;99.90;;;;;;5024110;28;20209;-76
2023/01/12 06:38:30;;;;;;;4.03;2.00;;;4.80;99.90;;;;;;5030307;28;20663;-76
2023/01/12 06:41:01;;;;;;;2.70;1.75;;;4.80;99.90;;;;;;5025753;28;20185;-75
2023/01/12 06:43:27;;;;;;;1.77;1.67;;;4.80;99.90;;;;;;5029149;28;20292;-75
2023/01/12 06:45:55;;;;;;;3.83;1.50;;;4.80;99.90;;;;;;5027716;28;20271;-75
2023/01/12 06:48:24;;;;;;;4.53;1.88;;;4.80;99.90;;;;;;5023713;28;20242;-75
2023/01/12 06:50:57;;;;;;;2.08;1.75;;;4.70;99.90;;;;;;5027506;28;20323;-77
2023/01/12 06:53:23;;;;;;;6.65;1.83;;;4.70;99.90;;;;;;5038841;28;20196;-77
2023/01/12 06:55:50;;;;;;;1.67;1.58;;;4.70;99.90;;;;;;5013524;28;20177;-76
2023/01/12 06:58:16;;;;;;;3.88;1.50;;;4.70;99.90;;;;;;5010003;28;20227;-75
2023/01/12 07:00:42;;;;;;;5.93;1.75;;;4.70;99.90;;;;;;5015370;28;20181;-75
2023/01/12 07:03:17;;;;;;;3.00;2.10;;;4.60;99.90;;;;;;5021014;28;20200;-75
2023/01/12 07:05:42;;;;;;;3.30;2.25;;;4.70;99.90;;;;;;5013884;28;20243;-75
2023/01/12 07:08:09;;;;;;;1.85;1.75;;;4.70;99.90;;;;;;5031180;28;20192;-75
2023/01/12 07:10:36;;;;;;;3.17;2.15;;;4.70;99.90;;;;;;5025396;28;20208;-75
2023/01/12 07:13:02;;;;;;;3.50;1.92;;;4.80;99.90;;;;;;5013517;28;20234;-75
2023/01/12 07:15:28;;;;;;;2.95;1.23;;;4.90;99.90;;;;;;5023697;28;20616;-75
2023/01/12 07:17:57;;;;;;;3.72;1.63;;;5.00;99.90;;;;;;5024248;28;20259;-77
2023/01/12 07:20:23;;;;;;;2.90;1.85;;;5.10;99.90;;;;;;5021089;28;20178;-76
2023/01/12 07:22:49;;;;;;;2.95;1.95;;;5.20;99.90;;;;;;5029115;28;20204;-77
2023/01/12 07:25:15;;;;;;;2.55;1.30;;;5.20;99.90;;;;;;5026992;28;20637;-76
2023/01/12 07:27:51;;;;;;;4.57;1.30;;;5.30;99.90;;;;;;5022990;28;20187;-76
2023/01/12 07:30:17;;;;;;;1.98;1.38;;;5.30;99.90;;;;;;5023943;28;20258;-77
2023/01/12 07:32:43;;;;;;;4.28;1.90;;;5.30;99.90;;;;;;5019416;28;20201;-76
2023/01/12 07:35:09;;;;;;;1.40;0.88;;;5.30;99.90;;;;;;5026870;28;20185;-75
2023/01/12 07:37:34;;;;;;;4.10;1.70;;;5.40;99.90;;;;;;5026288;28;20177;-77
2023/01/12 07:40:00;;;;;;;2.17;1.60;;;5.40;99.90;;;;;;5015542;28;20222;-74
2023/01/12 07:42:26;;;;;;;4.63;1.63;;;5.50;99.90;;;;;;5018799;28;20582;-74
2023/01/12 07:44:51;;;;;;;3.28;1.85;;;5.60;99.90;;;;;;5028353;28;20177;-76
2023/01/12 07:47:17;;;;;;;5.57;1.48;;;5.50;99.90;;;;;;5017609;28;20189;-74
2023/01/12 07:49:42;;;;;;;3.72;1.73;;;5.60;99.90;;;;;;5027589;28;20286;-76
2023/01/12 07:52:12;;;;;;;4.03;1.73;;;5.60;99.90;;;;;;5014297;28;20216;-75
2023/01/12 07:54:37;;;;;;;6.20;2.25;;;5.70;99.90;;;;;;5022280;28;20266;-76
2023/01/12 07:57:06;;;;;;;4.15;1.70;;;5.70;99.90;;;;;;5026130;28;20212;-76
2023/01/12 07:59:32;;;;;;;2.42;1.63;;;5.80;99.90;;;;;;5018413;28;20201;-75
2023/01/12 08:01:57;;;;;;;3.35;2.15;;;5.90;99.90;;;;;;5019488;28;20265;-75
2023/01/12 08:04:23;;;;;;;3.90;1.75;;;6.00;99.90;;;;;;5019390;28;20262;-76
2023/01/12 08:06:48;;;;;;;2.88;1.77;;;6.10;99.90;;;;;;5021536;28;20173;-75
2023/01/12 08:09:14;;;;;;;4.85;2.22;;;6.20;99.90;;;;;;5015746;28;20280;-76
2023/01/12 08:11:40;;;;;;;2.28;1.42;;;6.10;99.90;;;;;;5024718;28;20536;-75
2023/01/12 08:14:05;;;;;;;2.05;1.63;;;6.10;99.90;;;;;;5024630;28;20334;-75
2023/01/12 08:16:37;;;;;;;3.38;1.50;;;6.10;99.90;;;;;;5022546;28;20239;-75
2023/01/12 08:19:06;;;;;;;2.55;1.65;;;6.10;99.90;;;;;;5024190;28;20200;-75
2023/01/12 08:21:40;;;;;;;3.22;1.95;;;6.30;99.90;;;;;;5017190;28;20228;-75
2023/01/12 08:24:08;;;;;;;1.98;1.38;;;6.30;99.90;;;;;;5026354;28;20173;-76
2023/01/12 08:26:38;;;;;;;4.78;2.10;;;6.40;99.90;;;;;;5021641;28;20239;-76
2023/01/12 08:29:30;;;;;;;1.75;1.20;;;6.50;99.90;;;;;;5024161;28;20180;-75
2023/01/12 08:31:58;;;;;;;4.82;1.70;;;6.60;99.90;;;;;;5012833;28;20172;-76
2023/01/12 08:34:25;;;;;;;3.50;1.20;;;6.70;99.90;;;;;;5022448;28;20185;-76
2023/01/12 08:36:51;;;;;;;3.38;1.60;;;6.80;99.90;;;;;;5027861;28;20173;-76
2023/01/12 08:39:17;;;;;;;2.83;0.85;;;6.90;99.90;;;;;;5019191;28;20271;-76
2023/01/12 08:41:43;;;;;;;5.18;2.22;;;6.90;99.90;;;;;;5023207;28;20192;-76
2023/01/12 08:44:09;;;;;;;2.75;2.08;;;6.90;99.90;;;;;;5031600;28;20310;-76
2023/01/12 08:46:48;;;;;;;3.42;1.80;;;7.10;99.90;;;;;;5024962;28;20246;-75
2023/01/12 08:49:16;;;;;;;3.95;1.70;;;7.30;99.90;;;;;;5013563;28;20181;-76
2023/01/12 08:51:41;;;;;;;3.15;1.67;;;7.40;99.90;;;;;;5019771;28;20649;-75
2023/01/12 08:54:09;;;;;;;2.67;1.50;;;7.60;99.90;;;;;;5012440;28;20221;-76
2023/01/12 08:56:35;;;;;;;2.33;1.70;;;7.90;99.90;;;;;;5019494;28;20220;-76
2023/01/12 08:59:01;;;;;;;4.40;1.55;;;8.10;99.90;;;;;;5019658;28;20289;-76
2023/01/12 09:01:26;;;;;;;4.15;1.85;;;8.30;99.90;;;;;;5012675;28;20181;-76
2023/01/12 09:03:52;;;;;;;5.57;1.98;;;8.40;99.90;;;;;;5011070;28;20707;-76
2023/01/12 09:06:22;;;;;;;3.38;1.75;;;8.40;99.90;;;;;;5018752;28;20236;-75
2023/01/12 09:08:52;;;;;;;3.97;1.80;;;8.40;99.90;;;;;;5026901;28;20180;-76
2023/01/12 09:11:18;;;;;;;4.10;1.70;;;8.20;99.90;;;;;;5023531;28;20189;-76
2023/01/12 09:13:43;;;;;;;3.05;1.40;;;8.00;99.90;;;;;;5020923;28;20586;-76
2023/01/12 09:16:12;;;;;;;4.03;1.73;;;7.90;99.90;;;;;;5026739;28;20209;-76
2023/01/12 09:18:38;;;;;;;2.33;1.88;;;7.90;99.90;;;;;;5027588;28;20211;-76
2023/01/12 09:21:12;;;;;;;4.75;2.33;;;8.00;99.90;;;;;;5022815;28;20169;-76
2023/01/12 09:23:38;;;;;;;4.47;1.80;;;8.10;99.90;;;;;;5019287;28;20287;-76
2023/01/12 09:26:13;;;;;;;3.22;1.70;;;8.00;99.90;;;;;;5030473;28;20229;-76
2023/01/12 09:28:39;;;;;;;3.17;1.63;;;8.10;99.90;;;;;;5024775;28;20186;-75
2023/01/12 09:31:07;;;;;;;3.22;1.38;;;8.30;99.90;;;;;;5015879;28;20189;-76
2023/01/12 09:33:34;;;;;;;4.50;1.90;;;8.40;99.90;;;;;;5021902;28;20737;-76
2023/01/12 09:36:04;;;;;;;3.47;1.35;;;8.50;99.90;;;;;;5025938;28;20185;-76
2023/01/12 09:38:30;;;;;;;3.63;1.70;;;8.70;99.90;;;;;;5026847;28;20200;-76
2023/01/12 09:40:59;;;;;;;2.78;1.50;;;8.80;99.90;;;;;;5022302;28;20176;-76
2023/01/12 09:49:11;;;;;;;8.23;2.38;;;9.10;99.90;;;;;;5016514;28;20220;-76
2023/01/12 09:51:50;;;;;;;2.35;1.75;;;9.00;99.90;;;;;;5024295;28;20262;-75
2023/01/12 09:54:16;;;;;;;2.97;2.00;;;9.00;99.90;;;;;;5027731;28;20172;-76
2023/01/12 09:57:04;;;;;;;2.63;1.40;;;9.00;99.90;;;;;;5027285;28;20184;-75
2023/01/12 09:59:59;;;;;;;3.08;1.45;;;8.90;99.90;;;;;;5025479;28;20199;-76
2023/01/12 10:02:25;;;;;;;4.57;1.73;;;8.90;99.90;;;;;;5033217;28;20236;-75
2023/01/12 10:04:55;;;;;;;4.47;1.90;;;8.90;99.90;;;;;;5027577;28;20246;-76
2023/01/12 10:07:21;;;;;;;2.25;1.60;;;8.90;99.90;;;;;;5020319;28;20174;-76
2023/01/12 10:09:47;;;;;;;3.75;1.73;;;9.10;99.90;;;;;;5024617;28;20570;-77
2023/01/12 10:12:25;;;;;;;1.85;1.73;;;9.40;99.90;;;;;;5018349;28;20562;-79
2023/01/12 10:15:22;;;;;;;3.55;1.60;;;9.50;99.90;;;;;;5020855;28;20180;-78
2023/01/12 10:18:07;;;;;;;3.28;1.52;;;9.80;99.90;;;;;;5012197;28;20284;-78
2023/01/12 10:20:37;;;;;;;3.72;2.85;;;9.90;99.90;;;;;;5016179;28;20594;-77
2023/01/12 10:23:06;;;;;;;4.30;1.35;;;10.10;99.90;;;;;;5015328;28;20567;-78
2023/01/12 10:26:03;;;;;;;5.95;1.40;;;10.40;99.90;;;;;;5018402;28;20602;-77
2023/01/12 10:28:34;;;;;;;3.17;1.23;;;10.70;99.90;;;;;;5034622;28;20181;-79
2023/01/12 10:31:00;;;;;;;2.60;1.10;;;11.00;99.90;;;;;;5014333;28;20182;-78
2023/01/12 10:33:30;;;;;;;4.80;1.85;;;11.30;99.90;;;;;;5024962;28;20714;-78
2023/01/12 10:36:08;;;;;;;2.92;0.75;;;11.40;99.90;;;;;;5016787;28;20263;-79
2023/01/12 10:38:37;;;;;;;1.42;1.00;;;11.60;99.90;;;;;;5017060;28;20198;-79
2023/01/12 10:41:11;;;;;;;5.07;1.73;;;11.70;99.90;;;;;;5022554;28;20177;-79
2023/01/12 10:43:38;;;;;;;2.38;1.63;;;12.30;99.90;;;;;;5020687;28;20358;-79
2023/01/12 10:46:16;;;;;;;4.00;1.50;;;12.30;99.90;;;;;;5019809;28;20174;-79
2023/01/12 10:48:47;;;;;;;2.50;1.52;;;12.50;99.90;;;;;;5014937;28;20205;-79
2023/01/12 10:51:32;;;;;;;1.35;1.25;;;12.70;99.90;;;;;;5015602;28;20671;-78
2023/01/12 10:54:09;;;;;;;2.78;1.35;;;12.70;99.90;;;;;;5017722;28;20193;-79
2023/01/12 10:56:42;;;;;;;3.03;1.30;;;12.60;99.90;;;;;;5020471;28;20662;-79
2023/01/12 10:59:16;;;;;;;4.15;1.42;;;12.30;99.90;;;;;;5035804;28;20205;-79
2023/01/12 11:01:42;;;;;;;2.63;1.25;;;12.00;99.90;;;;;;5031826;28;20670;-78
2023/01/12 11:04:12;;;;;;;4.03;1.75;;;11.60;99.90;;;;;;5034126;28;20177;-79
2023/01/12 11:06:42;;;;;;;2.15;1.27;;;11.10;99.90;;;;;;5025841;28;20181;-79
2023/01/12 11:09:25;;;;;;;3.10;1.35;;;10.50;99.90;;;;;;5025959;28;20189;-76
2023/01/12 11:11:59;;;;;;;2.78;1.23;;;9.90;99.90;;;;;;5008805;28;20177;-78
2023/01/12 11:14:36;;;;;;;8.30;0.90;;;9.50;99.90;;;;;;5020204;28;20519;-76
2023/01/12 11:17:27;;;;;;;2.88;1.55;;;9.30;99.90;;;;;;5032121;28;20180;-76
2023/01/12 11:19:54;;;;;;;3.45;1.38;;;9.00;99.90;;;;;;5017916;28;20200;-76
2023/01/12 11:22:26;;;;;;;2.20;1.25;;;8.80;99.90;;;;;;5012020;28;20667;-76
2023/01/12 11:25:19;;;;;;;3.47;1.92;;;8.70;99.90;;;;;;5017770;28;20181;-75
2023/01/12 11:27:51;;;;;;;4.53;4.13;;;8.60;99.90;;;;;;5022832;28;20267;-75
2023/01/12 11:30:33;;;;;;;3.20;1.23;;;8.40;99.90;;;;;;5014275;28;20204;-75
2023/01/12 11:33:14;;;;;;;6.30;1.92;;;8.30;99.90;;;;;;5007487;28;20216;-75
2023/01/12 11:35:49;;;;;;;3.72;2.33;;;8.10;99.90;;;;;;5016974;28;20628;-76
2023/01/12 11:38:25;;;;;;;3.20;1.50;;;7.90;99.90;;;;;;5019060;28;20196;-74
2023/01/12 11:40:57;;;;;;;3.00;1.70;;;7.80;99.90;;;;;;5013692;28;20271;-76
2023/01/12 11:43:49;;;;;;;5.80;2.05;;;7.80;99.90;;;;;;5029644;28;20239;-76
2023/01/12 11:46:28;;;;;;;2.45;1.50;;;7.80;99.90;;;;;;5018237;28;20184;-74
2023/01/12 11:49:42;;;;;;;4.28;1.73;;;7.70;99.90;;;;;;5016625;28;20176;-74
2023/01/12 11:52:12;;;;;;;3.55;1.75;;;7.70;99.90;;;;;;5012871;28;20718;-74
2023/01/12 11:54:38;;;;;;;3.60;1.83;;;7.70;99.90;;;;;;5008453;28;20182;-74
2023/01/12 11:57:25;;;;;;;1.17;1.08;;;7.80;99.90;;;;;;5011027;28;20189;-75
2023/01/12 12:00:03;;;;;;;6.13;1.90;;;7.90;99.90;;;;;;5012092;28;20649;-76
2023/01/12 12:02:31;;;;;;;4.60;1.13;;;8.00;99.90;;;;;;5017405;28;20642;-76
2023/01/12 12:04:57;;;;;;;3.88;1.63;;;8.40;99.90;;;;;;5018030;28;20192;-76
2023/01/12 12:07:40;;;;;;;4.25;1.90;;;9.10;99.90;;;;;;5010088;28;20186;-76
2023/01/12 12:10:21;;;;;;;2.08;1.52;;;9.70;99.90;;;;;;5029376;28;20183;-76
2023/01/12 12:13:05;;;;;;;4.40;1.45;;;9.90;99.90;;;;;;5015500;28;20203;-76
2023/01/12 12:15:42;;;;;;;2.15;1.27;;;9.90;99.90;;;;;;5014384;28;20184;-75
2023/01/12 12:18:14;;;;;;;2.63;1.30;;;10.10;99.90;;;;;;5014777;28;20176;-76
2023/01/12 12:20:55;;;;;;;2.08;1.00;;;10.00;99.90;;;;;;5010163;28;20189;-75
2023/01/12 12:23:51;;;;;;;2.83;1.35;;;9.60;99.90;;;;;;5017059;28;20193;-75
2023/01/12 12:26:43;;;;;;;2.05;0.90;;;8.90;99.90;;;;;;5010294;28;20185;-75
2023/01/12 12:29:30;;;;;;;4.07;1.50;;;8.40;99.90;;;;;;5018039;28;20709;-75
2023/01/12 12:32:17;;;;;;;2.60;1.42;;;8.10;99.90;;;;;;5015110;28;20609;-75
2023/01/12 12:35:13;;;;;;;1.63;1.50;;;7.80;99.90;;;;;;5008232;28;20185;-75
2023/01/12 12:37:50;;;;;;;2.97;1.95;;;7.70;99.90;;;;;;5017735;28;20201;-75
2023/01/12 12:45:14;;;;;;;3.17;1.88;;;7.50;99.90;;;;;;5014691;28;20201;-76
2023/01/12 12:46:43;;;;;;;1.05;0.98;;;7.20;99.90;;;;;;5015458;28;20185;-76
2023/01/12 12:49:18;;;;;;;2.72;2.05;;;7.10;99.90;;;;;;5013430;28;20204;-76
2023/01/12 12:51:45;;;;;;;4.38;1.77;;;7.10;99.90;;;;;;5013199;28;20239;-75
2023/01/12 12:54:16;;;;;;;4.13;1.50;;;7.10;99.90;;;;;;5013658;28;20180;-74
2023/01/12 12:56:42;;;;;;;2.67;1.08;;;7.10;99.90;;;;;;5013569;28;20273;-74
2023/01/12 12:59:28;;;;;;;3.67;1.88;;;7.10;99.90;;;;;;5016199;28;20216;-74
2023/01/12 13:01:54;;;;;;;4.35;2.00;;;7.10;99.90;;;;;;5007578;28;20252;-74
2023/01/12 13:04:42;;;;;;;2.50;1.40;;;7.10;99.90;;;;;;5010477;28;20201;-74
2023/01/12 13:07:19;;;;;;;2.88;1.23;;;7.10;99.90;;;;;;5009708;28;20240;-74
2023/01/12 13:09:46;;;;;;;3.88;1.23;;;7.10;99.90;;;;;;5014905;28;20211;-74
2023/01/12 13:12:29;;;;;;;5.05;1.60;;;7.20;99.90;;;;;;5008659;28;20203;-75
2023/01/12 13:15:19;;;;;;;2.55;1.50;;;7.20;99.90;;;;;;5012139;28;20184;-75
2023/01/12 13:17:47;;;;;;;1.40;1.30;;;7.40;99.90;;;;;;5009178;28;20263;-74
2023/01/12 13:20:13;;;;;;;4.47;1.30;;;7.60;99.90;;;;;;5012144;28;20676;-74
2023/01/12 13:22:38;;;;;;;2.35;1.15;;;7.80;99.90;;;;;;5016828;28;20288;-74
2023/01/12 13:25:10;;;;;;;4.60;1.38;;;8.10;99.90;;;;;;5013855;28;20186;-74
2023/01/12 13:28:00;;;;;;;3.47;1.88;;;8.30;99.90;;;;;;5014512;28;20539;-75
2023/01/12 13:30:25;;;;;;;2.95;1.35;;;8.40;99.90;;;;;;5005198;28;20204;-74
2023/01/12 13:33:13;;;;;;;3.15;1.40;;;8.70;99.90;;;;;;5008458;28;20752;-74
2023/01/12 13:35:39;;;;;;;2.70;1.42;;;9.00;99.90;;;;;;5009382;28;20715;-74
2023/01/12 13:38:32;;;;;;;2.15;1.55;;;9.30;99.90;;;;;;5011693;28;20192;-75
2023/01/12 13:43:13;;;;;;;1.42;1.33;;;9.50;99.90;;;;;;5014237;28;20181;-75
2023/01/12 13:44:00;;;;;;;1.70;1.23;;;9.60;99.90;;;;;;5010682;28;20201;-74
2023/01/12 13:46:33;;;;;;;1.15;1.05;;;9.70;99.90;;;;;;5012276;28;20367;-76